createdAt,value
2023-01-08T00:00:56.810Z,0.60
2023-01-08T00:03:23.651Z,0.40
2023-01-08T00:05:50.369Z,0.95
2023-01-08T00:08:16.781Z,0.43
2023-01-08T00:10:43.203Z,0.60
2023-01-08T00:13:09.614Z,0.50
2023-01-08T00:15:36.442Z,0.40
2023-01-08T00:18:05.405Z,0.40
2023-01-08T00:20:32.937Z,0.70
2023-01-08T00:22:59.297Z,0.73
2023-01-08T00:25:25.780Z,0.70
2023-01-08T00:27:52.191Z,0.40
2023-01-08T00:30:18.592Z,0.50
2023-01-08T00:32:45.024Z,0.30
2023-01-08T00:35:11.412Z,0.38
2023-01-08T00:37:37.834Z,0.20
2023-01-08T00:40:04.841Z,0.40
2023-01-08T00:42:31.304Z,0.40
2023-01-08T00:44:57.706Z,0.40
2023-01-08T00:47:24.114Z,0.50
2023-01-08T00:49:50.587Z,0.50
2023-01-08T00:52:17.119Z,1.00
2023-01-08T00:54:43.560Z,0.50
2023-01-08T00:57:10.012Z,0.73
2023-01-08T00:59:36.401Z,1.15
2023-01-08T01:02:02.928Z,0.57
2023-01-08T01:04:29.509Z,0.70
2023-01-08T01:06:55.925Z,0.80
2023-01-08T01:09:22.410Z,0.73
2023-01-08T01:11:48.806Z,1.05
2023-01-08T01:14:15.725Z,0.90
2023-01-08T01:16:42.777Z,1.48
2023-01-08T01:19:09.668Z,1.10
2023-01-08T01:21:36.212Z,1.50
2023-01-08T01:24:04.551Z,1.23
2023-01-08T01:26:32.082Z,1.67
2023-01-08T01:28:59.625Z,1.40
2023-01-08T01:31:28.927Z,1.33
2023-01-08T01:33:55.552Z,0.90
2023-01-08T01:36:23.800Z,1.08
2023-01-08T01:38:52.104Z,0.80
2023-01-08T01:41:24.623Z,0.77
2023-01-08T01:43:51.341Z,0.50
2023-01-08T01:46:35.381Z,0.87
2023-01-08T01:49:17.598Z,0.70
2023-01-08T01:51:48.821Z,0.52
2023-01-08T01:54:17.561Z,0.60
2023-01-08T01:56:45.299Z,0.80
2023-01-08T01:59:12.813Z,0.60
2023-01-08T02:01:41.474Z,0.70
2023-01-08T02:04:17.738Z,0.80
2023-01-08T02:06:56.142Z,0.93
2023-01-08T02:09:37.071Z,1.08
2023-01-08T02:12:16.695Z,0.60
2023-01-08T02:15:11.564Z,0.50
2023-01-08T02:17:56.183Z,0.63
2023-01-08T02:20:22.624Z,0.82
2023-01-08T02:23:08.800Z,0.50
2023-01-08T02:26:06.767Z,0.50
2023-01-08T02:28:40.038Z,0.38
2023-01-08T02:31:07.404Z,0.45
2023-01-08T02:33:34.036Z,0.50
2023-01-08T02:36:20.576Z,0.52
2023-01-08T02:38:58.875Z,0.50
2023-01-08T02:41:35.610Z,0.50
2023-01-08T02:44:05.169Z,0.38
2023-01-08T02:46:34.316Z,0.30
2023-01-08T02:49:10.219Z,0.40
2023-01-08T02:51:54.535Z,0.73
2023-01-08T02:54:25.144Z,0.60
2023-01-08T02:57:01.340Z,0.32
2023-01-08T02:59:31.335Z,0.40
2023-01-08T03:01:58.323Z,0.55
2023-01-08T03:04:26.695Z,0.40
2023-01-08T03:06:53.368Z,0.70
2023-01-08T03:09:20.648Z,0.55
2023-01-08T03:12:02.311Z,0.80
2023-01-08T03:14:36.176Z,0.70
2023-01-08T03:17:14.489Z,0.57
2023-01-08T03:19:45.007Z,0.90
2023-01-08T03:22:14.598Z,1.10
2023-01-08T03:24:43.966Z,0.93
2023-01-08T03:27:16.715Z,0.88
2023-01-08T03:29:45.762Z,0.90
2023-01-08T03:32:16.307Z,0.90
2023-01-08T03:34:45.619Z,1.20
2023-01-08T03:37:13.981Z,1.20
2023-01-08T03:39:46.146Z,1.23
2023-01-08T03:42:15.242Z,1.10
2023-01-08T03:44:41.889Z,1.33
2023-01-08T03:47:10.898Z,1.30
2023-01-08T03:49:40.298Z,1.20
2023-01-08T03:52:06.680Z,1.42
2023-01-08T03:54:36.545Z,1.50
2023-01-08T03:57:03.185Z,1.20
2023-01-08T03:59:29.619Z,1.20
2023-01-08T04:01:56.090Z,1.35
2023-01-08T04:04:22.703Z,2.00
2023-01-08T04:06:49.109Z,1.43
2023-01-08T04:09:15.487Z,1.40
2023-01-08T04:11:42.184Z,1.38
2023-01-08T04:14:08.739Z,1.25
2023-01-08T04:16:35.232Z,1.20
2023-01-08T04:19:01.646Z,1.10
2023-01-08T04:21:28.187Z,1.25
2023-01-08T04:23:55.301Z,1.27
2023-01-08T04:26:21.649Z,0.93
2023-01-08T04:28:48.023Z,1.15
2023-01-08T04:31:14.488Z,0.60
2023-01-08T04:33:40.912Z,0.80
2023-01-08T04:36:07.485Z,0.60
2023-01-08T04:38:33.850Z,0.40
2023-01-08T04:41:01.700Z,0.80
2023-01-08T04:43:28.919Z,1.00
2023-01-08T04:46:03.226Z,0.30
2023-01-08T04:48:30.729Z,0.55
2023-01-08T04:51:01.141Z,0.50
2023-01-08T04:53:28.040Z,0.68
2023-01-08T04:55:54.599Z,0.40
2023-01-08T04:58:21.472Z,0.40
2023-01-08T05:00:47.950Z,0.30
2023-01-08T05:03:14.816Z,0.47
2023-01-08T05:05:41.214Z,0.30
2023-01-08T05:08:07.647Z,0.40
2023-01-08T05:10:34.105Z,0.43
2023-01-08T05:13:01.156Z,0.50
2023-01-08T05:15:28.076Z,0.30
2023-01-08T05:18:02.113Z,0.40
2023-01-08T05:20:28.962Z,0.90
2023-01-08T05:22:55.442Z,0.88
2023-01-08T05:25:21.988Z,0.40
2023-01-08T05:27:48.432Z,0.32
2023-01-08T05:30:15.021Z,0.75
2023-01-08T05:32:41.396Z,0.50
2023-01-08T05:35:08.140Z,0.40
2023-01-08T05:37:35.670Z,0.50
2023-01-08T05:40:02.216Z,0.50
2023-01-08T05:42:28.808Z,0.38
2023-01-08T05:44:55.237Z,0.63
2023-01-08T05:47:21.617Z,0.52
2023-01-08T05:49:47.969Z,0.40
2023-01-08T05:52:14.300Z,0.40
2023-01-08T05:54:40.673Z,0.55
2023-01-08T05:57:07.011Z,0.70
2023-01-08T05:59:33.539Z,0.40
2023-01-08T06:01:59.890Z,0.40
2023-01-08T06:04:26.467Z,0.47
2023-01-08T06:06:52.923Z,0.65
2023-01-08T06:09:19.885Z,0.50
2023-01-08T06:11:46.392Z,0.70
2023-01-08T06:14:14.480Z,0.70
2023-01-08T06:16:40.849Z,1.05
2023-01-08T06:19:07.260Z,0.90
2023-01-08T06:21:33.697Z,0.80
2023-01-08T06:24:00.107Z,0.60
2023-01-08T06:26:26.459Z,0.50
2023-01-08T06:28:52.836Z,0.90
2023-01-08T06:31:19.318Z,0.80
2023-01-08T06:33:45.812Z,0.80
2023-01-08T06:36:12.226Z,0.70
2023-01-08T06:38:38.576Z,0.85
2023-01-08T06:41:06.981Z,0.45
2023-01-08T06:43:36.277Z,0.50
2023-01-08T06:46:06.434Z,0.70
2023-01-08T06:48:32.924Z,0.68
2023-01-08T06:51:00.827Z,0.75
2023-01-08T06:53:27.235Z,0.80
2023-01-08T06:55:56.927Z,0.68
2023-01-08T06:58:24.949Z,0.50
2023-01-08T07:00:51.460Z,0.70
2023-01-08T07:03:17.943Z,0.80
2023-01-08T07:05:44.408Z,0.63
2023-01-08T07:08:13.682Z,0.70
2023-01-08T07:10:40.266Z,0.77
2023-01-08T07:13:08.894Z,0.50
2023-01-08T07:15:42.033Z,0.60
2023-01-08T07:18:10.926Z,0.60
2023-01-08T07:20:37.670Z,0.63
2023-01-08T07:23:06.496Z,0.87
2023-01-08T07:25:33.387Z,0.70
2023-01-08T07:28:00.412Z,0.60
2023-01-08T07:30:30.209Z,0.63
2023-01-08T07:33:01.490Z,1.00
2023-01-08T07:35:28.770Z,0.60
2023-01-08T07:37:55.191Z,0.32
2023-01-08T07:40:21.854Z,0.77
2023-01-08T07:42:48.291Z,0.70
2023-01-08T07:45:14.802Z,0.65
2023-01-08T07:47:41.138Z,0.47
2023-01-08T07:50:07.966Z,0.75
2023-01-08T07:52:34.297Z,0.70
2023-01-08T07:55:00.710Z,1.05
2023-01-08T07:57:29.600Z,0.50
2023-01-08T07:59:55.987Z,0.40
2023-01-08T08:02:22.442Z,0.50
2023-01-08T08:04:48.873Z,0.50
2023-01-08T08:07:15.238Z,0.57
2023-01-08T08:09:41.624Z,0.50
2023-01-08T08:12:08.774Z,0.70
2023-01-08T08:14:35.133Z,0.43
2023-01-08T08:17:01.455Z,0.57
2023-01-08T08:19:27.817Z,0.40
2023-01-08T08:21:54.795Z,0.47
2023-01-08T08:24:21.134Z,0.90
2023-01-08T08:26:47.504Z,0.60
2023-01-08T08:29:13.852Z,0.60
2023-01-08T08:31:40.422Z,0.90
2023-01-08T08:34:07.987Z,0.57
2023-01-08T08:36:34.522Z,0.50
2023-01-08T08:39:02.167Z,0.50
2023-01-08T08:41:28.825Z,0.90
2023-01-08T08:43:55.448Z,0.50
2023-01-08T08:46:24.134Z,0.68
2023-01-08T08:48:54.670Z,0.40
2023-01-08T08:51:21.388Z,0.50
2023-01-08T08:53:48.088Z,0.75
2023-01-08T08:56:17.289Z,0.70
2023-01-08T08:58:45.266Z,0.80
2023-01-08T09:01:15.130Z,0.90
2023-01-08T09:03:41.918Z,1.00
2023-01-08T09:06:16.880Z,0.90
2023-01-08T09:08:43.378Z,0.82
2023-01-08T09:11:10.050Z,0.60
2023-01-08T09:13:39.985Z,0.67
2023-01-08T09:16:06.736Z,0.77
2023-01-08T09:18:34.409Z,0.40
2023-01-08T09:21:06.109Z,0.70
2023-01-08T09:23:34.034Z,0.73
2023-01-08T09:26:05.014Z,1.03
2023-01-08T09:28:32.044Z,0.90
2023-01-08T09:31:02.795Z,0.70
2023-01-08T09:33:30.002Z,1.00
2023-01-08T09:35:56.344Z,0.60
2023-01-08T09:38:23.542Z,0.90
2023-01-08T09:41:03.641Z,1.15
2023-01-08T09:43:34.734Z,0.77
2023-01-08T09:46:03.978Z,1.33
2023-01-08T09:48:35.683Z,0.80
2023-01-08T09:51:02.269Z,0.80
2023-01-08T09:53:29.283Z,0.70
2023-01-08T09:56:15.249Z,0.63
2023-01-08T09:58:45.296Z,0.68
2023-01-08T10:01:15.309Z,0.80
2023-01-08T10:03:46.931Z,0.77
2023-01-08T10:06:15.317Z,0.75
2023-01-08T10:11:15.581Z,0.70
2023-01-08T10:13:49.062Z,0.70
2023-01-08T10:16:38.212Z,0.67
2023-01-08T10:19:05.471Z,0.60
2023-01-08T10:21:37.905Z,0.70
2023-01-08T10:24:04.428Z,0.70
2023-01-08T10:26:33.643Z,0.77
2023-01-08T10:29:11.608Z,0.97
2023-01-08T10:31:53.826Z,0.70
2023-01-08T10:34:32.735Z,0.73
2023-01-08T10:36:59.458Z,0.68
2023-01-08T10:39:28.405Z,0.75
2023-01-08T10:42:03.359Z,0.60
2023-01-08T10:44:31.426Z,0.63
2023-01-08T10:47:00.973Z,0.60
2023-01-08T10:49:32.434Z,0.65
2023-01-08T10:52:00.230Z,0.80
2023-01-08T10:54:32.167Z,0.67
2023-01-08T10:57:00.649Z,1.15
2023-01-08T10:59:29.216Z,0.57
2023-01-08T11:01:57.709Z,0.60
2023-01-08T11:04:36.093Z,0.77
2023-01-08T11:07:05.668Z,0.83
2023-01-08T11:09:46.034Z,0.90
2023-01-08T11:12:41.895Z,0.52
2023-01-08T11:15:28.610Z,0.57
2023-01-08T11:17:55.197Z,1.00
2023-01-08T11:20:30.693Z,0.63
2023-01-08T11:23:17.688Z,0.60
2023-01-08T11:25:59.095Z,0.50
2023-01-08T11:28:33.521Z,0.57
2023-01-08T11:31:33.793Z,0.65
2023-01-08T11:34:12.079Z,0.50
2023-01-08T11:36:47.417Z,0.90
2023-01-08T11:39:13.868Z,0.57
2023-01-08T11:42:11.355Z,1.15
2023-01-08T11:45:02.755Z,0.60
2023-01-08T11:47:53.661Z,0.90
2023-01-08T11:50:32.727Z,0.65
2023-01-08T11:53:23.628Z,0.60
2023-01-08T11:56:07.912Z,0.60
2023-01-08T11:59:03.174Z,0.35
2023-01-08T12:01:29.586Z,0.50
2023-01-08T12:04:27.908Z,0.63
2023-01-08T12:07:01.280Z,0.70
2023-01-08T12:09:38.670Z,0.75
2023-01-08T12:12:25.939Z,0.60
2023-01-08T12:15:15.145Z,0.50
2023-01-08T12:18:09.907Z,0.70
2023-01-08T12:20:54.936Z,0.70
2023-01-08T12:23:35.148Z,0.70
2023-01-08T12:26:42.914Z,0.73
2023-01-08T12:29:35.014Z,0.30
2023-01-08T12:32:10.727Z,0.65
2023-01-08T12:35:04.089Z,0.45
2023-01-08T12:37:46.361Z,0.63
2023-01-08T12:40:12.792Z,0.60
2023-01-08T12:42:47.131Z,0.53
2023-01-08T12:45:28.354Z,1.00
2023-01-08T12:48:24.027Z,0.60
2023-01-08T12:51:07.691Z,0.52
2023-01-08T12:53:49.642Z,0.80
2023-01-08T12:56:27.805Z,0.77
2023-01-08T12:59:03.941Z,0.70
2023-01-08T13:01:36.789Z,0.52
2023-01-08T13:04:05.156Z,0.60
2023-01-08T13:06:31.906Z,0.60
2023-01-08T13:09:01.489Z,0.83
2023-01-08T13:11:38.328Z,0.50
2023-01-08T13:14:07.759Z,0.40
2023-01-08T13:16:42.198Z,0.98
2023-01-08T13:19:25.241Z,0.50
2023-01-08T13:21:54.943Z,0.50
2023-01-08T13:24:29.542Z,0.70
2023-01-08T13:26:57.438Z,0.60
2023-01-08T13:29:44.858Z,0.70
2023-01-08T13:32:47.614Z,0.65
2023-01-08T13:35:17.056Z,0.53
2023-01-08T13:37:45.875Z,0.50
2023-01-08T13:40:47.472Z,0.40
2023-01-08T13:43:40.724Z,0.55
2023-01-08T13:46:15.932Z,0.55
2023-01-08T13:49:01.020Z,0.40
2023-01-08T13:51:43.381Z,0.50
2023-01-08T13:54:12.577Z,0.70
2023-01-08T13:56:41.036Z,0.30
2023-01-08T13:59:18.820Z,0.50
2023-01-08T14:01:53.422Z,0.77
2023-01-08T14:04:21.619Z,0.50
2023-01-08T14:06:48.246Z,0.30
2023-01-08T14:09:23.238Z,0.70
2023-01-08T14:11:53.370Z,0.50
2023-01-08T14:14:21.724Z,0.60
2023-01-08T14:16:50.179Z,0.40
2023-01-08T14:19:22.218Z,0.60
2023-01-08T14:21:54.474Z,0.40
2023-01-08T14:24:23.440Z,0.50
2023-01-08T14:26:56.267Z,0.50
2023-01-08T14:29:30.720Z,0.40
2023-01-08T14:32:00.094Z,0.35
2023-01-08T14:34:30.347Z,0.40
2023-01-08T14:36:57.424Z,0.40
2023-01-08T14:39:35.413Z,0.50
2023-01-08T14:42:27.249Z,0.50
2023-01-08T14:44:56.734Z,0.40
2023-01-08T14:47:30.037Z,0.38
2023-01-08T14:49:57.043Z,0.75
2023-01-08T14:52:23.646Z,0.77
2023-01-08T14:54:55.037Z,0.60
2023-01-08T14:57:24.131Z,0.75
2023-01-08T15:00:01.836Z,0.47
2023-01-08T15:02:33.500Z,0.70
2023-01-08T15:05:19.705Z,0.77
2023-01-08T15:07:57.806Z,0.80
2023-01-08T15:10:44.512Z,0.77
2023-01-08T15:13:24.700Z,0.70
2023-01-08T15:15:56.692Z,1.00
2023-01-08T15:18:23.616Z,0.77
2023-01-08T15:20:51.076Z,0.88
2023-01-08T15:23:27.146Z,0.70
2023-01-08T15:25:54.810Z,0.88
2023-01-08T15:28:21.887Z,0.73
2023-01-08T15:30:49.424Z,0.60
2023-01-08T15:33:16.920Z,1.33
2023-01-08T15:35:43.426Z,0.70
2023-01-08T15:38:09.909Z,1.27
2023-01-08T15:40:36.248Z,0.80
2023-01-08T15:43:11.532Z,1.03
2023-01-08T15:45:40.544Z,0.77
2023-01-08T15:48:08.068Z,0.60
2023-01-08T15:50:38.850Z,0.95
2023-01-08T15:53:25.562Z,0.70
2023-01-08T15:55:52.058Z,0.80
2023-01-08T15:58:18.585Z,1.13
2023-01-08T16:00:46.457Z,0.80
2023-01-08T16:03:14.568Z,1.27
2023-01-08T16:05:41.032Z,0.80
2023-01-08T16:08:07.542Z,1.07
2023-01-08T16:10:34.267Z,1.63
2023-01-08T16:13:01.476Z,1.48
2023-01-08T16:15:28.748Z,1.50
2023-01-08T16:17:55.458Z,1.17
2023-01-08T16:20:21.813Z,0.97
2023-01-08T16:22:48.205Z,1.02
2023-01-08T16:25:14.707Z,0.98
2023-01-08T16:27:42.943Z,0.68
2023-01-08T16:30:16.961Z,1.00
2023-01-08T16:32:43.574Z,0.80
2023-01-08T16:35:10.754Z,0.95
2023-01-08T16:37:37.523Z,1.10
2023-01-08T16:40:04.556Z,0.80
2023-01-08T16:42:31.009Z,1.40
2023-01-08T16:44:57.421Z,1.80
2023-01-08T16:47:23.850Z,0.90
2023-01-08T16:49:51.135Z,0.80
2023-01-08T16:52:18.234Z,0.90
2023-01-08T16:54:46.012Z,1.38
2023-01-08T16:57:12.641Z,1.17
2023-01-08T16:59:39.069Z,1.27
2023-01-08T17:02:06.103Z,1.33
2023-01-08T17:04:32.824Z,1.10
2023-01-08T17:06:59.164Z,1.00
2023-01-08T17:09:26.035Z,1.10
2023-01-08T17:11:52.440Z,1.25
2023-01-08T17:14:18.978Z,0.70
2023-01-08T17:16:45.561Z,1.23
2023-01-08T17:19:13.371Z,0.90
2023-01-08T17:21:40.125Z,0.90
2023-01-08T17:24:07.262Z,1.20
2023-01-08T17:26:33.741Z,1.40
2023-01-08T17:29:00.122Z,1.00
2023-01-08T17:31:26.508Z,1.33
2023-01-08T17:33:54.449Z,1.47
2023-01-08T17:36:22.114Z,1.23
2023-01-08T17:38:50.543Z,0.93
2023-01-08T17:41:36.465Z,1.00
2023-01-08T17:44:08.017Z,1.13
2023-01-08T17:46:42.083Z,0.80
2023-01-08T17:49:11.188Z,1.02
2023-01-08T17:51:38.698Z,1.15
2023-01-08T17:54:05.294Z,1.00
2023-01-08T17:56:31.720Z,1.17
2023-01-08T17:58:58.152Z,0.80
2023-01-08T18:01:24.578Z,1.10
2023-01-08T18:03:52.101Z,0.70
2023-01-08T18:06:18.503Z,1.05
2023-01-08T18:08:44.879Z,1.40
2023-01-08T18:11:11.328Z,1.07
2023-01-08T18:13:38.093Z,1.50
2023-01-08T18:16:10.775Z,1.17
2023-01-08T18:18:38.047Z,0.80
2023-01-08T18:21:04.951Z,1.20
2023-01-08T18:23:31.896Z,1.10
2023-01-08T18:26:10.854Z,1.42
2023-01-08T18:28:38.581Z,1.58
2023-01-08T18:31:10.411Z,1.52
2023-01-08T18:33:37.777Z,1.08
2023-01-08T18:36:09.365Z,1.20
2023-01-08T18:38:41.213Z,1.10
2023-01-08T18:41:08.323Z,1.20
2023-01-08T18:43:36.012Z,1.55
2023-01-08T18:46:05.553Z,1.80
2023-01-08T18:48:32.676Z,1.00
2023-01-08T18:51:05.102Z,1.13
2023-01-08T18:53:33.211Z,0.90
2023-01-08T18:56:00.439Z,0.95
2023-01-08T18:58:27.706Z,0.68
2023-01-08T19:00:54.440Z,1.23
2023-01-08T19:03:21.023Z,0.77
2023-01-08T19:05:47.364Z,0.50
2023-01-08T19:08:13.931Z,0.77
2023-01-08T19:10:40.453Z,0.80
2023-01-08T19:13:07.044Z,0.73
2023-01-08T19:15:33.627Z,0.93
2023-01-08T19:18:00.152Z,0.85
2023-01-08T19:20:27.453Z,0.77
2023-01-08T19:22:53.835Z,1.00
2023-01-08T19:25:20.505Z,1.00
2023-01-08T19:27:47.102Z,0.90
2023-01-08T19:30:13.740Z,1.10
2023-01-08T19:32:40.171Z,1.55
2023-01-08T19:35:06.734Z,1.13
2023-01-08T19:37:33.138Z,0.97
2023-01-08T19:40:01.950Z,1.00
2023-01-08T19:42:46.905Z,1.10
2023-01-08T19:45:13.690Z,0.90
2023-01-08T19:47:40.254Z,1.30
2023-01-08T19:50:07.474Z,1.13
2023-01-08T19:52:33.867Z,0.90
2023-01-08T19:55:01.518Z,0.70
2023-01-08T19:57:28.309Z,0.75
2023-01-08T19:59:54.830Z,1.08
2023-01-08T20:02:21.393Z,0.90
2023-01-08T20:04:47.856Z,1.10
2023-01-08T20:07:14.672Z,1.02
2023-01-08T20:09:42.168Z,0.90
2023-01-08T20:12:09.207Z,0.93
2023-01-08T20:14:35.718Z,0.80
2023-01-08T20:17:02.473Z,0.80
2023-01-08T20:19:28.947Z,0.93
2023-01-08T20:21:55.613Z,0.70
2023-01-08T20:24:22.148Z,1.00
2023-01-08T20:26:48.536Z,0.90
2023-01-08T20:29:16.673Z,0.75
2023-01-08T20:31:44.165Z,1.00
2023-01-08T20:34:15.354Z,0.95
2023-01-08T20:36:43.696Z,1.00
2023-01-08T20:39:13.799Z,1.10
2023-01-08T20:41:43.564Z,1.00
2023-01-08T20:44:16.713Z,1.13
2023-01-08T20:46:43.445Z,1.05
2023-01-08T20:49:13.099Z,0.80
2023-01-08T20:51:46.327Z,1.23
2023-01-08T20:54:17.986Z,1.17
2023-01-08T20:56:44.706Z,0.93
2023-01-08T20:59:11.459Z,0.60
2023-01-08T21:01:37.886Z,0.80
2023-01-08T21:04:06.226Z,0.90
2023-01-08T21:06:33.772Z,0.70
2023-01-08T21:09:06.249Z,0.45
2023-01-08T21:11:34.193Z,0.70
2023-01-08T21:14:01.832Z,1.23
2023-01-08T21:16:30.252Z,0.93
2023-01-08T21:18:58.099Z,1.02
2023-01-08T21:21:29.595Z,0.68
2023-01-08T21:23:57.288Z,0.95
2023-01-08T21:26:24.061Z,1.20
2023-01-08T21:28:50.808Z,0.97
2023-01-08T21:31:20.221Z,0.88
2023-01-08T21:33:48.736Z,0.70
2023-01-08T21:36:21.031Z,0.73
2023-01-08T21:38:48.180Z,0.80
2023-01-08T21:41:37.765Z,1.07
2023-01-08T21:44:24.891Z,0.60
2023-01-08T21:46:51.349Z,0.70
2023-01-08T21:49:17.863Z,0.50
2023-01-08T21:52:02.898Z,0.65
2023-01-08T21:54:29.338Z,0.90
2023-01-08T21:56:55.747Z,0.90
2023-01-08T21:59:22.220Z,0.68
2023-01-08T22:01:48.640Z,0.98
2023-01-08T22:04:15.037Z,0.90
2023-01-08T22:06:42.791Z,0.50
2023-01-08T22:09:09.637Z,0.70
2023-01-08T22:11:36.025Z,0.60
2023-01-08T22:14:02.489Z,0.77
2023-01-08T22:16:28.907Z,0.60
2023-01-08T22:18:55.301Z,0.60
2023-01-08T22:21:21.710Z,0.50
2023-01-08T22:23:48.295Z,0.60
2023-01-08T22:26:14.760Z,0.65
2023-01-08T22:28:41.153Z,0.77
2023-01-08T22:31:09.997Z,0.77
2023-01-08T22:33:37.143Z,0.60
2023-01-08T22:36:05.729Z,0.65
2023-01-08T22:38:32.257Z,0.77
2023-01-08T22:40:59.216Z,0.95
2023-01-08T22:43:26.078Z,0.87
2023-01-08T22:45:59.813Z,0.60
2023-01-08T22:48:27.610Z,0.60
2023-01-08T22:50:54.459Z,0.70
2023-01-08T22:53:20.905Z,1.00
2023-01-08T22:55:48.228Z,0.83
2023-01-08T22:58:16.129Z,0.80
2023-01-08T23:00:43.105Z,0.70
2023-01-08T23:03:09.665Z,1.02
2023-01-08T23:05:36.166Z,0.68
2023-01-08T23:08:02.873Z,0.77
2023-01-08T23:10:29.579Z,0.63
2023-01-08T23:12:56.075Z,0.77
2023-01-08T23:15:23.029Z,0.77
2023-01-08T23:17:52.431Z,0.82
2023-01-08T23:20:20.749Z,0.90
2023-01-08T23:22:48.821Z,0.70
2023-01-08T23:25:15.684Z,0.70
2023-01-08T23:27:42.243Z,0.60
2023-01-08T23:30:09.244Z,0.80
2023-01-08T23:32:35.626Z,0.80
2023-01-08T23:35:02.119Z,0.65
2023-01-08T23:37:28.446Z,0.70
2023-01-08T23:39:54.804Z,0.70
2023-01-08T23:42:21.331Z,0.43
2023-01-08T23:44:49.574Z,0.33
2023-01-08T23:47:16.060Z,0.40
2023-01-08T23:49:42.485Z,0.55
2023-01-08T23:52:08.889Z,0.57
2023-01-08T23:54:35.868Z,0.30
2023-01-08T23:57:02.470Z,0.50
2023-01-08T23:59:28.945Z,0.30
